Time;durP1;ratioP1;P1;durP2;ratioP2;P2;SDS_P1;SDS_P2;PMS_P1;PMS_P2;Temp;Humidity;BMP_temperature;BMP_pressure;BME280_temperature;BME280_humidity;BME280_pressure;Samples;Min_cycle;Max_cycle;Signal;HPM_P1;HPM_P2
2022/09/18 00:00:19;;;;;;;1.73;1.23;;;13.50;62.00;;;;;;4999517;28;20026;-79
2022/09/18 00:02:45;;;;;;;2.40;1.33;;;13.50;61.80;;;;;;5031953;28;20025;-79
2022/09/18 00:05:10;;;;;;;2.97;1.10;;;13.50;61.50;;;;;;4999342;28;20109;-79
2022/09/18 00:07:36;;;;;;;4.57;1.20;;;13.60;61.10;;;;;;4999185;28;20496;-79
2022/09/18 00:10:02;;;;;;;3.40;1.08;;;13.50;61.10;;;;;;4998743;28;20038;-79
2022/09/18 00:12:27;;;;;;;3.15;1.00;;;13.50;61.70;;;;;;4999495;28;20030;-79
2022/09/18 00:14:53;;;;;;;3.13;1.00;;;13.50;61.20;;;;;;4999423;28;20061;-78
2022/09/18 00:17:18;;;;;;;2.35;1.05;;;13.50;61.10;;;;;;4998877;28;20018;-78
2022/09/18 00:19:44;;;;;;;3.60;1.00;;;13.50;61.00;;;;;;4999330;28;20037;-79
2022/09/18 00:22:10;;;;;;;4.20;1.08;;;13.50;60.80;;;;;;5014287;28;20045;-78
2022/09/18 00:24:35;;;;;;;2.42;0.90;;;13.50;60.90;;;;;;5014144;28;20431;-79
2022/09/18 00:27:01;;;;;;;1.60;1.02;;;13.50;61.10;;;;;;5013683;28;20094;-79
2022/09/18 00:29:27;;;;;;;1.30;0.88;;;13.50;61.10;;;;;;5014200;28;20037;-79
2022/09/18 00:31:52;;;;;;;1.58;0.90;;;13.40;61.10;;;;;;4998997;28;20429;-78
2022/09/18 00:34:21;;;;;;;2.17;1.02;;;13.40;61.10;;;;;;5004901;28;20045;-79
2022/09/18 00:36:47;;;;;;;1.27;1.05;;;13.40;60.90;;;;;;5018493;28;20014;-78
2022/09/18 00:39:13;;;;;;;1.40;0.90;;;13.30;61.20;;;;;;5018363;28;20055;-78
2022/09/18 00:41:40;;;;;;;2.38;0.93;;;13.30;61.30;;;;;;5013452;28;20070;-79
2022/09/18 00:44:28;;;;;;;1.88;1.05;;;13.30;61.30;;;;;;4998547;28;20579;-79
2022/09/18 00:46:55;;;;;;;1.92;1.20;;;13.30;61.20;;;;;;4997985;28;20026;-78
2022/09/18 00:49:25;;;;;;;1.77;1.05;;;13.30;61.30;;;;;;4998600;28;20037;-78
2022/09/18 00:51:52;;;;;;;2.45;0.90;;;13.30;61.10;;;;;;5032543;28;20505;-79
2022/09/18 00:54:35;;;;;;;1.13;0.80;;;13.30;61.00;;;;;;4999734;28;20037;-79
2022/09/18 00:57:13;;;;;;;1.90;1.05;;;13.20;61.20;;;;;;5005291;28;20057;-78
2022/09/18 00:59:44;;;;;;;2.33;1.00;;;13.20;61.00;;;;;;4998780;28;20029;-79
2022/09/18 01:02:11;;;;;;;;;;;13.20;61.10;;;;;;4998856;28;20034;-78
2022/09/18 01:04:37;;;;;;;2.55;1.38;;;13.20;60.90;;;;;;4981028;28;19941;-79
2022/09/18 01:07:09;;;;;;;1.00;0.70;;;13.20;60.90;;;;;;4997586;28;20494;-79
2022/09/18 01:10:12;;;;;;;3.88;1.02;;;13.10;61.00;;;;;;5000322;28;20030;-79
2022/09/18 01:12:50;;;;;;;2.45;1.25;;;13.00;61.10;;;;;;5000124;28;20751;-79
2022/09/18 01:15:42;;;;;;;1.15;0.85;;;13.00;61.30;;;;;;4998463;28;20449;-79
2022/09/18 01:18:14;;;;;;;2.28;1.35;;;13.00;61.30;;;;;;4998119;28;20038;-78
2022/09/18 01:20:56;;;;;;;1.83;1.10;;;13.00;61.40;;;;;;4998346;28;20038;-79
2022/09/18 01:23:30;;;;;;;3.03;1.20;;;12.90;61.40;;;;;;4998033;28;20022;-78
2022/09/18 01:26:20;;;;;;;3.00;1.13;;;12.90;61.20;;;;;;5028622;28;20026;-79
2022/09/18 01:28:55;;;;;;;1.48;1.00;;;12.90;61.10;;;;;;4997913;28;20049;-79
2022/09/18 01:31:47;;;;;;;1.40;0.98;;;12.90;60.90;;;;;;4997662;28;20126;-78
2022/09/18 01:34:33;;;;;;;3.20;1.10;;;12.80;61.30;;;;;;5003037;28;20026;-79
2022/09/18 01:37:12;;;;;;;1.20;0.90;;;12.70;61.60;;;;;;5017418;28;20565;-78
2022/09/18 01:39:44;;;;;;;1.30;0.93;;;12.70;61.50;;;;;;5017408;28;20101;-79
2022/09/18 01:42:12;;;;;;;1.98;1.15;;;12.70;61.50;;;;;;5003253;28;20084;-79
2022/09/18 01:44:41;;;;;;;1.58;1.00;;;12.70;61.50;;;;;;4997505;28;20410;-78
2022/09/18 01:47:11;;;;;;;3.08;1.20;;;12.60;61.60;;;;;;5006530;28;20025;-79
2022/09/18 01:49:41;;;;;;;1.48;1.27;;;12.50;61.80;;;;;;4997440;28;20034;-79
2022/09/18 01:52:12;;;;;;;1.30;1.10;;;12.50;61.70;;;;;;4997505;28;20023;-78
2022/09/18 01:54:41;;;;;;;1.83;0.98;;;12.50;61.90;;;;;;4997773;28;20041;-79
2022/09/18 01:57:12;;;;;;;3.13;1.43;;;12.50;62.00;;;;;;4996904;28;20100;-78
2022/09/18 01:59:49;;;;;;;1.60;1.02;;;12.40;62.00;;;;;;4997325;28;20125;-78
2022/09/18 02:02:27;;;;;;;5.57;0.95;;;12.30;62.10;;;;;;4996011;28;20042;-78
2022/09/18 02:04:59;;;;;;;2.55;1.00;;;12.30;62.10;;;;;;5012613;28;20108;-79
2022/09/18 02:07:31;;;;;;;1.73;1.05;;;12.30;62.50;;;;;;4997186;28;20030;-79
2022/09/18 02:09:58;;;;;;;1.88;1.25;;;12.30;62.10;;;;;;4997106;28;20027;-78
2022/09/18 02:12:27;;;;;;;1.73;1.05;;;12.30;62.20;;;;;;4997502;28;20026;-78
2022/09/18 02:14:57;;;;;;;2.10;1.20;;;12.30;62.10;;;;;;4997114;28;20072;-78
2022/09/18 02:17:29;;;;;;;;;;;12.30;61.90;;;;;;4997525;28;20285;-78
2022/09/18 02:20:00;;;;;;;3.28;1.30;;;12.20;61.90;;;;;;4979034;28;19912;-78
2022/09/18 02:22:32;;;;;;;2.72;1.27;;;12.20;61.90;;;;;;4997053;28;20026;-78
2022/09/18 02:25:03;;;;;;;2.67;1.73;;;12.20;62.20;;;;;;4997375;28;20025;-79
2022/09/18 02:27:31;;;;;;;1.77;1.30;;;12.20;62.50;;;;;;4996785;28;20037;-78
2022/09/18 02:29:59;;;;;;;1.60;1.33;;;12.20;62.30;;;;;;4996809;28;20068;-79
2022/09/18 02:32:25;;;;;;;2.08;1.35;;;12.10;62.50;;;;;;4996641;28;20478;-78
2022/09/18 02:34:51;;;;;;;2.53;1.35;;;12.20;62.50;;;;;;5006730;28;20092;-78
2022/09/18 02:37:36;;;;;;;1.65;1.27;;;12.20;62.60;;;;;;4997974;28;20034;-78
2022/09/18 02:40:20;;;;;;;4.05;1.48;;;12.20;62.40;;;;;;4996296;28;20019;-79
2022/09/18 02:43:06;;;;;;;1.30;1.10;;;12.20;62.70;;;;;;4997112;28;20081;-78
2022/09/18 02:46:12;;;;;;;2.67;1.40;;;12.10;62.90;;;;;;4996893;28;20544;-78
2022/09/18 02:48:49;;;;;;;1.88;1.20;;;12.10;62.90;;;;;;4996490;28;20026;-78
2022/09/18 02:51:53;;;;;;;1.60;1.13;;;12.10;62.70;;;;;;4996434;28;20057;-78
2022/09/18 02:54:36;;;;;;;3.45;1.20;;;12.00;62.90;;;;;;4935615;29;20043;-79
2022/09/18 02:57:15;;;;;;;2.35;1.20;;;12.00;63.00;;;;;;4974656;28;20113;-79
2022/09/18 02:59:53;;;;;;;4.50;1.50;;;12.00;62.90;;;;;;4996289;28;20054;-79
2022/09/18 03:02:27;;;;;;;2.38;1.20;;;12.00;62.70;;;;;;4996299;28;20108;-78
2022/09/18 03:04:52;;;;;;;1.80;1.30;;;11.90;62.80;;;;;;4996321;28;20065;-78
2022/09/18 03:07:18;;;;;;;1.67;1.13;;;11.90;63.00;;;;;;4996366;28;20054;-78
2022/09/18 03:09:44;;;;;;;1.42;1.10;;;11.80;62.80;;;;;;5010992;28;20038;-78
2022/09/18 03:12:10;;;;;;;2.25;1.30;;;11.90;62.80;;;;;;4995863;28;20030;-79
2022/09/18 03:14:36;;;;;;;1.65;1.23;;;11.80;62.70;;;;;;4996157;28;20041;-79
2022/09/18 03:17:02;;;;;;;2.05;1.30;;;11.80;63.00;;;;;;4995907;28;20701;-79
2022/09/18 03:19:28;;;;;;;2.17;1.40;;;11.80;63.10;;;;;;4996334;28;20023;-78
2022/09/18 03:21:54;;;;;;;1.17;1.02;;;11.80;63.00;;;;;;4996043;28;20134;-79
2022/09/18 03:24:20;;;;;;;1.60;1.10;;;11.80;62.90;;;;;;4996028;28;20105;-78
2022/09/18 03:26:46;;;;;;;2.08;1.17;;;11.80;62.60;;;;;;4999311;28;20030;-79
2022/09/18 03:29:13;;;;;;;2.33;1.30;;;11.80;62.80;;;;;;5015563;28;20092;-78
2022/09/18 03:31:39;;;;;;;2.63;1.55;;;11.70;62.90;;;;;;5014778;28;20033;-79
2022/09/18 03:34:05;;;;;;;2.70;1.30;;;11.70;62.80;;;;;;5014967;28;20113;-78
2022/09/18 03:36:36;;;;;;;1.27;1.10;;;11.70;63.00;;;;;;4995840;28;20045;-78
2022/09/18 03:39:03;;;;;;;4.53;1.33;;;11.70;62.90;;;;;;5011711;28;20398;-79
2022/09/18 03:41:28;;;;;;;2.17;1.30;;;11.70;62.60;;;;;;4995870;28;20034;-78
2022/09/18 03:43:54;;;;;;;1.25;1.05;;;11.60;62.80;;;;;;4995695;28;20046;-78
2022/09/18 03:46:23;;;;;;;2.03;1.20;;;11.60;62.90;;;;;;4999580;28;20022;-79
2022/09/18 03:48:52;;;;;;;4.13;1.35;;;11.60;62.90;;;;;;5000147;28;20034;-78
2022/09/18 03:51:19;;;;;;;1.75;1.17;;;11.50;63.20;;;;;;4995757;28;20557;-79
2022/09/18 03:53:45;;;;;;;2.63;1.25;;;11.50;63.40;;;;;;5011592;28;20141;-78
2022/09/18 03:56:12;;;;;;;5.03;1.38;;;11.50;63.20;;;;;;4995717;28;20061;-78
2022/09/18 03:58:38;;;;;;;4.07;1.35;;;11.50;63.30;;;;;;4995667;28;20367;-78
2022/09/18 04:01:05;;;;;;;2.38;1.30;;;11.50;63.30;;;;;;5010548;28;20030;-78
2022/09/18 04:03:32;;;;;;;1.55;1.30;;;11.40;63.20;;;;;;4995660;28;20082;-79
2022/09/18 04:05:57;;;;;;;1.38;1.13;;;11.40;63.00;;;;;;4995403;28;20038;-78
2022/09/18 04:08:23;;;;;;;2.65;1.38;;;11.40;62.90;;;;;;4995490;28;20026;-78
2022/09/18 04:10:49;;;;;;;1.67;1.25;;;11.30;63.10;;;;;;4995626;28;20035;-78
2022/09/18 04:13:15;;;;;;;1.45;1.05;;;11.30;63.20;;;;;;5010597;28;20100;-79
2022/09/18 04:15:43;;;;;;;1.35;1.17;;;11.30;63.30;;;;;;4995496;28;20076;-79
2022/09/18 04:18:08;;;;;;;2.50;1.35;;;11.30;63.20;;;;;;4995927;28;20498;-79
2022/09/18 04:20:34;;;;;;;2.13;1.27;;;11.30;63.30;;;;;;4997593;28;20095;-79
2022/09/18 04:23:00;;;;;;;2.17;1.48;;;11.30;63.40;;;;;;5014203;28;20555;-79
2022/09/18 04:25:25;;;;;;;1.52;1.20;;;11.30;63.40;;;;;;5013629;28;20097;-78
2022/09/18 04:27:51;;;;;;;2.38;1.75;;;11.30;63.40;;;;;;4998879;28;20022;-78
2022/09/18 04:30:17;;;;;;;1.75;1.40;;;11.20;63.50;;;;;;4999024;28;20045;-78
2022/09/18 04:32:43;;;;;;;3.17;1.52;;;11.20;63.80;;;;;;4999312;28;20031;-78
2022/09/18 04:35:09;;;;;;;2.53;1.73;;;11.20;63.60;;;;;;5011500;28;20033;-78
2022/09/18 04:37:35;;;;;;;1.88;1.48;;;11.20;63.60;;;;;;5018526;28;20026;-78
2022/09/18 04:40:01;;;;;;;1.40;1.30;;;11.20;64.00;;;;;;5001079;28;20493;-79
2022/09/18 04:42:27;;;;;;;2.45;1.60;;;11.10;64.20;;;;;;4998858;28;20030;-79
2022/09/18 04:44:52;;;;;;;1.83;1.42;;;11.10;64.20;;;;;;4996975;28;20046;-78
2022/09/18 04:47:18;;;;;;;1.77;1.50;;;11.10;64.00;;;;;;5002498;28;20027;-79
2022/09/18 04:49:44;;;;;;;2.85;1.92;;;11.10;64.00;;;;;;4998747;28;20030;-78
2022/09/18 04:52:09;;;;;;;27.30;13.55;;;11.10;63.90;;;;;;4998600;28;20478;-78
2022/09/18 04:54:35;;;;;;;35.05;15.73;;;11.10;63.90;;;;;;4981684;28;20034;-78
2022/09/18 04:57:00;;;;;;;33.40;15.18;;;11.00;63.90;;;;;;4998691;28;20065;-78
2022/09/18 04:59:26;;;;;;;32.13;15.05;;;11.00;63.70;;;;;;4998411;28;20054;-78
2022/09/18 05:01:59;;;;;;;15.95;9.07;;;11.00;63.60;;;;;;4996127;28;20041;-76
2022/09/18 05:04:25;;;;;;;8.85;5.00;;;11.00;63.70;;;;;;5017282;28;20022;-78
2022/09/18 05:06:50;;;;;;;9.10;4.78;;;11.00;63.80;;;;;;5026139;28;20031;-77
2022/09/18 05:09:16;;;;;;;7.25;4.53;;;11.00;63.80;;;;;;4999189;28;20121;-77
2022/09/18 05:11:41;;;;;;;7.50;3.65;;;11.00;63.90;;;;;;5009986;28;20032;-77
2022/09/18 05:14:07;;;;;;;5.40;2.95;;;10.90;63.90;;;;;;5018329;28;20401;-77
2022/09/18 05:16:33;;;;;;;7.88;3.40;;;10.90;63.90;;;;;;5013084;28;20030;-77
2022/09/18 05:18:59;;;;;;;4.50;2.72;;;10.90;64.00;;;;;;4999851;28;20501;-77
2022/09/18 05:21:24;;;;;;;3.65;1.83;;;10.90;63.80;;;;;;5018258;28;20085;-77
2022/09/18 05:23:50;;;;;;;4.97;2.13;;;10.90;64.00;;;;;;5004441;28;20084;-78
2022/09/18 05:26:16;;;;;;;2.20;1.85;;;10.80;64.00;;;;;;4998240;28;20509;-77
2022/09/18 05:28:41;;;;;;;3.88;2.00;;;10.80;64.20;;;;;;4998521;28;20027;-77
2022/09/18 05:31:07;;;;;;;2.90;1.67;;;10.80;64.40;;;;;;4997598;28;20026;-77
2022/09/18 05:33:33;;;;;;;3.72;1.52;;;10.80;64.00;;;;;;4998267;28;20054;-77
2022/09/18 05:35:59;;;;;;;2.50;1.67;;;10.80;63.90;;;;;;5032902;28;20034;-77
2022/09/18 05:38:25;;;;;;;3.63;1.80;;;10.80;63.80;;;;;;5011974;28;20478;-77
2022/09/18 05:40:51;;;;;;;5.05;1.80;;;10.80;64.10;;;;;;4998281;28;20482;-77
2022/09/18 05:43:17;;;;;;;2.10;1.60;;;10.80;64.10;;;;;;4997866;28;20027;-77
2022/09/18 05:45:43;;;;;;;2.33;1.70;;;10.80;64.20;;;;;;4998008;28;20525;-77
2022/09/18 05:48:13;;;;;;;2.70;1.50;;;10.80;64.50;;;;;;5016564;28;20030;-76
2022/09/18 05:50:39;;;;;;;2.87;2.10;;;10.80;64.50;;;;;;4986478;28;20494;-77
2022/09/18 05:53:16;;;;;;;3.28;2.10;;;10.80;64.70;;;;;;4980312;28;20137;-77
2022/09/18 05:55:42;;;;;;;2.92;2.08;;;10.70;65.10;;;;;;5013277;28;20042;-78
2022/09/18 05:58:19;;;;;;;2.42;2.00;;;10.80;65.20;;;;;;4998049;28;20137;-77
2022/09/18 06:00:45;;;;;;;3.70;2.30;;;10.70;65.50;;;;;;4997433;28;20031;-78
2022/09/18 06:03:13;;;;;;;6.40;4.88;;;10.70;65.40;;;;;;4997999;28;20040;-86
2022/09/18 06:05:40;;;;;;;7.82;4.47;;;10.70;65.50;;;;;;4996499;28;20080;-77
2022/09/18 06:08:08;;;;;;;4.10;3.70;;;10.60;65.70;;;;;;4997736;28;20072;-77
2022/09/18 06:10:36;;;;;;;3.78;3.08;;;10.70;65.90;;;;;;5000832;28;20374;-87
2022/09/18 06:13:04;;;;;;;5.28;3.13;;;10.60;66.00;;;;;;5005959;28;20030;-90
2022/09/18 06:15:31;;;;;;;3.97;3.65;;;10.70;65.80;;;;;;5017183;28;20018;-79
2022/09/18 06:17:57;;;;;;;4.30;3.90;;;10.60;66.10;;;;;;5005745;28;20031;-80
2022/09/18 06:20:23;;;;;;;8.70;5.28;;;10.70;66.10;;;;;;4997710;28;20022;-77
2022/09/18 06:22:48;;;;;;;6.93;4.82;;;10.70;66.10;;;;;;4997965;28;20117;-77
2022/09/18 06:25:20;;;;;;;11.57;6.80;;;10.70;66.80;;;;;;4998013;28;20117;-78
2022/09/18 06:27:46;;;;;;;10.75;7.30;;;10.70;66.60;;;;;;4996916;28;20069;-75
2022/09/18 06:30:12;;;;;;;19.65;9.80;;;10.70;66.70;;;;;;5015599;28;20065;-80
2022/09/18 06:32:38;;;;;;;21.20;13.15;;;10.70;66.90;;;;;;5030462;28;20140;-75
2022/09/18 06:35:04;;;;;;;15.43;9.98;;;10.70;66.90;;;;;;5015679;28;20461;-80
2022/09/18 06:37:30;;;;;;;15.52;10.38;;;10.70;67.20;;;;;;5013647;28;20026;-77
2022/09/18 06:39:55;;;;;;;15.75;9.75;;;10.70;67.60;;;;;;5014076;28;20022;-78
2022/09/18 06:42:21;;;;;;;10.82;8.93;;;10.80;67.30;;;;;;5014393;28;20037;-79
2022/09/18 06:44:47;;;;;;;14.43;9.43;;;10.80;67.40;;;;;;5013311;28;20421;-78
2022/09/18 06:47:12;;;;;;;12.27;7.28;;;10.80;67.50;;;;;;5015886;28;20049;-78
2022/09/18 06:49:38;;;;;;;9.32;7.35;;;10.80;67.20;;;;;;5016287;28;20065;-78
2022/09/18 06:52:04;;;;;;;11.13;5.35;;;10.80;67.20;;;;;;5004447;28;20031;-78
2022/09/18 06:54:29;;;;;;;7.10;5.30;;;10.90;66.90;;;;;;5024735;28;20026;-78
2022/09/18 06:56:55;;;;;;;7.47;4.25;;;11.00;66.90;;;;;;5015083;28;20018;-77
2022/09/18 06:59:21;;;;;;;6.13;3.88;;;11.00;67.00;;;;;;5014380;28;20026;-77
2022/09/18 07:01:50;;;;;;;5.53;2.92;;;11.10;67.10;;;;;;4992106;28;20034;-81
2022/09/18 07:04:16;;;;;;;3.13;2.55;;;11.10;66.80;;;;;;5007720;28;20034;-81
2022/09/18 07:06:45;;;;;;;3.47;2.13;;;11.20;67.10;;;;;;4991913;28;20061;-80
2022/09/18 07:09:11;;;;;;;2.13;1.73;;;11.20;67.00;;;;;;5012600;28;20053;-80
2022/09/18 07:11:38;;;;;;;4.68;2.20;;;11.30;66.70;;;;;;5012304;28;20273;-80
2022/09/18 07:14:07;;;;;;;5.88;2.53;;;11.40;66.80;;;;;;4992067;28;20497;-81
2022/09/18 07:16:34;;;;;;;3.30;2.13;;;11.50;66.60;;;;;;5013560;28;20069;-80
2022/09/18 07:19:00;;;;;;;4.28;1.92;;;11.60;66.50;;;;;;5014172;28;20113;-79
2022/09/18 07:21:26;;;;;;;2.00;1.80;;;12.20;65.50;;;;;;5015272;28;20053;-75
2022/09/18 07:23:51;;;;;;;1.90;1.63;;;13.50;62.30;;;;;;4994379;28;20105;-75
2022/09/18 07:26:18;;;;;;;2.78;1.60;;;15.80;56.70;;;;;;5014589;28;20100;-76
2022/09/18 07:28:44;;;;;;;2.63;1.50;;;18.10;50.80;;;;;;5011456;28;20041;-77
2022/09/18 07:31:10;;;;;;;2.38;1.42;;;19.80;46.60;;;;;;5013938;28;20388;-77
2022/09/18 07:33:36;;;;;;;1.80;1.30;;;20.80;44.00;;;;;;5013493;28;20165;-77
2022/09/18 07:36:04;;;;;;;2.40;1.20;;;21.60;42.60;;;;;;5010406;28;20026;-77
2022/09/18 07:38:30;;;;;;;1.42;0.95;;;22.00;42.00;;;;;;5014539;28;20025;-77
2022/09/18 07:40:55;;;;;;;2.05;1.00;;;22.30;41.50;;;;;;5014281;28;20026;-77
2022/09/18 07:43:21;;;;;;;1.65;1.05;;;21.20;42.60;;;;;;5013942;28;20046;-76
2022/09/18 07:45:47;;;;;;;3.17;1.00;;;19.40;45.70;;;;;;5012998;28;20030;-76
2022/09/18 07:48:15;;;;;;;2.47;0.90;;;17.80;49.30;;;;;;4992762;28;20022;-76
2022/09/18 07:50:41;;;;;;;1.55;0.95;;;16.80;52.10;;;;;;5009464;28;20088;-76
2022/09/18 07:53:07;;;;;;;5.05;1.08;;;16.00;54.30;;;;;;5010806;28;20053;-77
2022/09/18 07:55:35;;;;;;;1.52;1.00;;;15.40;56.60;;;;;;5006072;28;20033;-77
2022/09/18 07:58:04;;;;;;;1.40;1.02;;;15.10;57.80;;;;;;5015680;28;20014;-77
2022/09/18 08:00:33;;;;;;;1.48;1.00;;;14.80;59.40;;;;;;5011590;28;20022;-77
2022/09/18 08:03:04;;;;;;;3.53;1.13;;;14.70;60.00;;;;;;5029329;28;20033;-76
2022/09/18 08:05:30;;;;;;;2.38;1.00;;;14.70;60.60;;;;;;5012569;28;20037;-75
2022/09/18 08:08:01;;;;;;;2.97;0.98;;;14.80;59.90;;;;;;5017302;28;20026;-75
2022/09/18 08:10:26;;;;;;;1.50;1.08;;;15.30;58.70;;;;;;5017366;28;20069;-78
2022/09/18 08:12:53;;;;;;;1.92;0.73;;;15.50;57.30;;;;;;4996255;28;20057;-76
2022/09/18 08:15:21;;;;;;;1.90;0.95;;;15.30;57.60;;;;;;5016265;28;20113;-77
2022/09/18 08:17:47;;;;;;;1.55;0.90;;;15.20;58.00;;;;;;4999393;28;20160;-75
2022/09/18 08:20:13;;;;;;;3.05;0.82;;;15.00;59.30;;;;;;4997796;28;20112;-79
2022/09/18 08:22:40;;;;;;;2.33;0.80;;;14.80;58.50;;;;;;5015940;28;20030;-77
2022/09/18 08:25:07;;;;;;;1.27;0.80;;;14.80;59.20;;;;;;5015993;28;20038;-81
2022/09/18 08:27:40;;;;;;;1.85;0.90;;;14.80;59.00;;;;;;4981734;28;20038;-78
2022/09/18 08:30:08;;;;;;;1.10;0.70;;;14.70;59.30;;;;;;5015052;28;20082;-78
2022/09/18 08:32:36;;;;;;;1.60;0.70;;;14.70;59.90;;;;;;5006427;28;20051;-78
2022/09/18 08:35:02;;;;;;;5.20;1.10;;;14.70;60.30;;;;;;4987383;28;20077;-78
2022/09/18 08:37:29;;;;;;;2.28;0.95;;;14.80;61.70;;;;;;4996623;28;20099;-78
2022/09/18 08:39:55;;;;;;;1.67;0.93;;;14.80;60.90;;;;;;4998440;28;20030;-78
2022/09/18 08:42:24;;;;;;;2.45;0.88;;;14.90;60.20;;;;;;4998851;28;20660;-78
2022/09/18 08:44:54;;;;;;;2.03;0.88;;;14.90;59.30;;;;;;5020424;28;20056;-78
2022/09/18 08:47:30;;;;;;;1.35;0.98;;;15.00;59.50;;;;;;5031252;28;20021;-79
2022/09/18 08:50:03;;;;;;;2.42;1.08;;;15.00;60.10;;;;;;5024641;28;20037;-78
2022/09/18 08:52:33;;;;;;;1.40;0.90;;;15.10;60.00;;;;;;5034114;28;20026;-78
2022/09/18 08:55:04;;;;;;;1.75;1.20;;;15.20;60.20;;;;;;5026636;28;20036;-79
2022/09/18 08:57:40;;;;;;;2.00;1.00;;;15.50;59.60;;;;;;5028975;28;20511;-78
2022/09/18 09:00:23;;;;;;;2.30;0.93;;;15.90;57.90;;;;;;5028970;28;20022;-78
2022/09/18 09:02:52;;;;;;;1.20;0.80;;;16.80;55.50;;;;;;5025263;28;20032;-78
2022/09/18 09:05:21;;;;;;;1.55;0.73;;;17.70;53.70;;;;;;5026840;28;20494;-79
2022/09/18 09:08:09;;;;;;;3.80;0.90;;;19.00;50.40;;;;;;5014772;28;20057;-79
2022/09/18 09:10:55;;;;;;;1.70;0.60;;;20.10;47.80;;;;;;5014643;28;20895;-80
2022/09/18 09:13:45;;;;;;;2.00;0.47;;;20.80;44.90;;;;;;5031543;28;20044;-80
2022/09/18 09:16:15;;;;;;;1.55;0.57;;;21.00;45.30;;;;;;4999073;28;20117;-79
2022/09/18 09:18:50;;;;;;;;;;;20.70;45.50;;;;;;5024723;28;20134;-79
2022/09/18 09:21:50;;;;;;;2.92;0.57;;;19.90;45.90;;;;;;5025726;28;19996;-80
2022/09/18 09:24:34;;;;;;;2.97;0.60;;;19.10;47.70;;;;;;4986264;28;20052;-79
2022/09/18 09:27:13;;;;;;;1.00;0.47;;;18.40;48.60;;;;;;5027739;28;20648;-79
2022/09/18 09:29:42;;;;;;;1.17;0.40;;;17.90;50.00;;;;;;5024681;28;20045;-79
2022/09/18 09:32:26;;;;;;;1.98;0.55;;;17.60;51.60;;;;;;5017429;28;20034;-79
2022/09/18 09:35:13;;;;;;;1.15;0.47;;;17.40;51.50;;;;;;5017211;28;20022;-79
2022/09/18 09:37:42;;;;;;;2.67;0.80;;;17.30;53.20;;;;;;5015239;28;20026;-79
2022/09/18 09:40:34;;;;;;;3.85;0.73;;;17.20;53.10;;;;;;5017742;28;20029;-79
2022/09/18 09:43:19;;;;;;;2.53;0.85;;;17.20;52.70;;;;;;5009265;28;20044;-80
2022/09/18 09:45:49;;;;;;;0.82;0.45;;;17.10;52.50;;;;;;5017372;28;20034;-79
2022/09/18 09:48:23;;;;;;;2.50;0.50;;;17.00;52.10;;;;;;5016394;28;20030;-78
2022/09/18 09:51:26;;;;;;;1.92;0.77;;;17.10;52.20;;;;;;5014097;28;20038;-79
2022/09/18 09:53:54;;;;;;;3.45;0.82;;;17.00;52.50;;;;;;5009816;28;20089;-79
2022/09/18 09:56:44;;;;;;;1.20;0.68;;;17.00;53.60;;;;;;4998493;28;20792;-78
2022/09/18 09:59:25;;;;;;;3.22;0.80;;;17.10;54.10;;;;;;5015623;28;20401;-78
2022/09/18 10:02:24;;;;;;;1.95;0.70;;;17.40;52.50;;;;;;4979276;28;20045;-80
2022/09/18 10:05:02;;;;;;;1.98;0.77;;;17.70;52.00;;;;;;5009605;28;20030;-79
2022/09/18 10:07:37;;;;;;;1.23;0.60;;;18.20;51.40;;;;;;5017572;28;20478;-79
2022/09/18 10:10:50;;;;;;;2.28;0.70;;;18.60;49.40;;;;;;4998433;28;20037;-79
2022/09/18 10:13:24;;;;;;;3.30;0.77;;;18.50;49.20;;;;;;4932041;29;20078;-79
2022/09/18 10:16:07;;;;;;;1.42;0.60;;;18.20;49.40;;;;;;4988131;28;20049;-79
2022/09/18 10:18:40;;;;;;;2.55;0.60;;;18.00;50.70;;;;;;5015292;28;20030;-79
2022/09/18 10:21:19;;;;;;;1.70;0.50;;;17.80;50.30;;;;;;5016091;28;20109;-79
2022/09/18 10:24:13;;;;;;;2.95;0.93;;;17.70;51.60;;;;;;4999311;28;20109;-79
2022/09/18 10:27:00;;;;;;;2.28;0.60;;;17.70;50.40;;;;;;5007446;28;20037;-79
2022/09/18 10:29:26;;;;;;;2.45;0.90;;;17.70;51.90;;;;;;4995874;28;20034;-79
2022/09/18 10:31:57;;;;;;;2.55;0.90;;;17.70;50.50;;;;;;4998615;28;20105;-79
2022/09/18 10:34:47;;;;;;;3.95;0.80;;;17.70;51.70;;;;;;5003643;28;20148;-79
2022/09/18 10:37:28;;;;;;;3.05;0.68;;;17.70;50.50;;;;;;4999778;28;20050;-80
2022/09/18 10:39:58;;;;;;;2.03;0.70;;;17.70;51.00;;;;;;4981440;28;20536;-80
2022/09/18 10:42:27;;;;;;;0.90;0.50;;;17.70;49.50;;;;;;5011999;28;20030;-79
2022/09/18 10:44:57;;;;;;;2.33;0.70;;;17.70;48.80;;;;;;4996932;28;20046;-79
2022/09/18 10:47:27;;;;;;;;;;;17.70;50.70;;;;;;4996928;28;20500;-79
2022/09/18 10:50:22;;;;;;;4.15;0.73;;;17.80;51.40;;;;;;4997236;28;19963;-79
2022/09/18 10:52:48;;;;;;;0.85;0.55;;;17.90;50.70;;;;;;5007697;28;20038;-79
2022/09/18 10:55:15;;;;;;;3.10;0.68;;;18.00;49.80;;;;;;5031780;28;20029;-79
2022/09/18 10:58:10;;;;;;;4.25;1.50;;;18.00;49.70;;;;;;5031746;28;20115;-79
2022/09/18 11:00:58;;;;;;;3.00;0.80;;;18.00;49.90;;;;;;5021914;28;20027;-80
2022/09/18 11:03:40;;;;;;;2.33;0.70;;;18.10;49.90;;;;;;4996601;28;20022;-79
2022/09/18 11:06:14;;;;;;;1.95;0.73;;;18.20;49.50;;;;;;4995690;28;20068;-80
2022/09/18 11:08:45;;;;;;;1.88;0.65;;;18.20;49.00;;;;;;4996632;28;20046;-79
2022/09/18 11:11:21;;;;;;;;;;;18.20;49.20;;;;;;5006767;28;20504;-79
2022/09/18 11:14:14;;;;;;;1.20;0.50;;;18.20;48.80;;;;;;4998593;28;19913;-80
2022/09/18 11:16:47;;;;;;;2.20;0.70;;;18.20;48.80;;;;;;5016352;28;20409;-79
2022/09/18 11:19:31;;;;;;;2.28;0.60;;;18.30;48.00;;;;;;5001897;28;20031;-79
2022/09/18 11:22:01;;;;;;;1.25;0.50;;;18.30;49.40;;;;;;4996522;28;20494;-79
2022/09/18 11:24:30;;;;;;;1.25;0.60;;;18.30;49.20;;;;;;4996848;28;20030;-79
2022/09/18 11:26:57;;;;;;;2.45;0.55;;;18.30;49.40;;;;;;4996599;28;20030;-80
2022/09/18 11:29:29;;;;;;;1.48;0.68;;;18.30;48.60;;;;;;4995728;28;20161;-80
2022/09/18 11:31:57;;;;;;;1.23;0.60;;;18.40;48.70;;;;;;4999985;28;20397;-79
2022/09/18 11:34:27;;;;;;;1.05;0.55;;;18.50;49.60;;;;;;5003891;28;20022;-79
2022/09/18 11:36:58;;;;;;;1.08;0.55;;;18.60;49.30;;;;;;5014760;28;20077;-79
2022/09/18 11:39:33;;;;;;;4.22;1.58;;;18.60;47.90;;;;;;4998397;28;20041;-80
2022/09/18 11:41:59;;;;;;;4.97;1.05;;;18.70;49.10;;;;;;5015093;28;20037;-79
2022/09/18 11:44:31;;;;;;;4.22;0.80;;;18.70;48.60;;;;;;5014550;28;20073;-80
2022/09/18 11:47:18;;;;;;;3.05;0.50;;;18.70;48.20;;;;;;4996359;28;20103;-79
2022/09/18 11:49:50;;;;;;;2.10;0.82;;;18.80;47.90;;;;;;5009528;28;20026;-79
2022/09/18 11:52:24;;;;;;;1.42;0.50;;;18.80;48.60;;;;;;5014723;28;20061;-80
2022/09/18 11:55:15;;;;;;;2.72;0.55;;;18.80;47.80;;;;;;5015364;28;20022;-80
2022/09/18 11:57:46;;;;;;;2.40;1.23;;;18.80;48.00;;;;;;5011421;28;20057;-79
2022/09/18 12:00:21;;;;;;;1.95;0.68;;;18.80;47.70;;;;;;5000218;28;20018;-79
2022/09/18 12:03:15;;;;;;;0.75;0.45;;;18.90;48.00;;;;;;5006690;28;20025;-80
2022/09/18 12:06:24;;;;;;;1.60;0.60;;;19.00;47.60;;;;;;4998189;28;20038;-80
2022/09/18 12:09:14;;;;;;;2.10;0.50;;;19.00;46.90;;;;;;5006868;28;20049;-81
2022/09/18 12:12:13;;;;;;;1.93;1.40;;;19.10;47.50;;;;;;4998660;28;20053;-80
2022/09/18 12:14:57;;;;;;;3.42;0.50;;;19.10;47.20;;;;;;4995597;28;20058;-79
2022/09/18 12:17:37;;;;;;;1.70;0.50;;;19.20;45.80;;;;;;4994944;28;20453;-80
2022/09/18 12:20:09;;;;;;;1.92;0.45;;;19.10;44.70;;;;;;4998596;28;20030;-80
2022/09/18 12:22:50;;;;;;;1.30;0.40;;;19.30;45.80;;;;;;4995891;28;20021;-80
2022/09/18 12:25:18;;;;;;;0.57;0.30;;;19.20;44.00;;;;;;5009482;28;20030;-79
2022/09/18 12:28:22;;;;;;;1.55;0.50;;;19.20;44.60;;;;;;4998097;28;20025;-80
2022/09/18 12:31:06;;;;;;;3.42;0.70;;;19.20;44.90;;;;;;4958825;28;20078;-80
2022/09/18 12:34:03;;;;;;;1.40;0.60;;;19.30;45.20;;;;;;4995558;28;20025;-80
2022/09/18 12:36:45;;;;;;;2.08;0.77;;;19.30;45.10;;;;;;4995866;28;20027;-79
2022/09/18 12:39:48;;;;;;;2.00;0.52;;;19.40;45.20;;;;;;4995729;28;20046;-80
2022/09/18 12:42:31;;;;;;;0.90;0.60;;;19.40;45.30;;;;;;5012376;28;20040;-80
2022/09/18 12:45:25;;;;;;;0.85;0.50;;;19.50;45.40;;;;;;5001166;28;20490;-79
2022/09/18 12:48:13;;;;;;;2.60;0.75;;;19.60;45.80;;;;;;5018293;28;20049;-79
2022/09/18 12:51:00;;;;;;;2.75;0.70;;;19.60;45.10;;;;;;4997678;28;20033;-80
2022/09/18 12:53:49;;;;;;;1.23;0.50;;;19.70;45.10;;;;;;5004834;28;20100;-79
2022/09/18 12:56:27;;;;;;;2.15;0.60;;;19.60;44.60;;;;;;4999358;28;20050;-79
2022/09/18 12:59:07;;;;;;;1.13;0.45;;;19.70;45.30;;;;;;4999417;28;20049;-80
2022/09/18 13:01:45;;;;;;;3.33;0.70;;;19.70;45.60;;;;;;4998836;28;20058;-80
2022/09/18 13:04:31;;;;;;;2.60;0.73;;;19.70;45.60;;;;;;4999312;28;20034;-80
2022/09/18 13:07:31;;;;;;;2.20;0.47;;;19.70;45.50;;;;;;4998855;28;20073;-80
2022/09/18 13:10:04;;;;;;;1.23;0.50;;;19.80;46.20;;;;;;4998757;28;20030;-80
2022/09/18 13:13:01;;;;;;;1.42;0.50;;;19.80;46.00;;;;;;5014509;28;20106;-79
2022/09/18 13:15:38;;;;;;;2.88;0.60;;;19.90;46.20;;;;;;5009079;28;20030;-79